sensor_id;sensor_type;location;lat;lon;timestamp;pressure;altitude;pressure_sealevel;temperature;humidity
53659;BME280;41524;35.624;139.698;2022-12-17T00:00:23;101743.00;;;7.25;36.01
53659;BME280;41524;35.624;139.698;2022-12-17T00:05:11;101760.00;;;7.41;37.18
53659;BME280;41524;35.624;139.698;2022-12-17T00:10:16;101741.00;;;6.63;38.62
53659;BME280;41524;35.624;139.698;2022-12-17T00:15:10;101739.00;;;6.01;39.64
53659;BME280;41524;35.624;139.698;2022-12-17T00:20:21;101763.00;;;5.98;38.45
53659;BME280;41524;35.624;139.698;2022-12-17T00:25:10;101757.00;;;5.99;38.99
53659;BME280;41524;35.624;139.698;2022-12-17T00:30:11;101743.00;;;6.28;41.63
53659;BME280;41524;35.624;139.698;2022-12-17T00:35:11;101744.00;;;6.31;40.56
53659;BME280;41524;35.624;139.698;2022-12-17T00:40:15;101763.00;;;6.64;41.30
53659;BME280;41524;35.624;139.698;2022-12-17T00:45:11;101779.00;;;6.33;38.76
53659;BME280;41524;35.624;139.698;2022-12-17T00:50:11;101757.00;;;7.80;39.50
53659;BME280;41524;35.624;139.698;2022-12-17T00:55:11;101755.00;;;8.16;34.87
53659;BME280;41524;35.624;139.698;2022-12-17T01:00:17;101750.00;;;7.32;37.33
53659;BME280;41524;35.624;139.698;2022-12-17T01:05:16;101739.00;;;7.10;39.03
53659;BME280;41524;35.624;139.698;2022-12-17T01:10:16;101717.00;;;8.74;36.36
53659;BME280;41524;35.624;139.698;2022-12-17T01:15:11;101686.00;;;7.52;37.69
53659;BME280;41524;35.624;139.698;2022-12-17T01:20:11;101656.00;;;7.09;37.68
53659;BME280;41524;35.624;139.698;2022-12-17T01:25:20;101647.00;;;7.09;38.24
53659;BME280;41524;35.624;139.698;2022-12-17T01:30:18;101638.00;;;7.00;38.42
53659;BME280;41524;35.624;139.698;2022-12-17T01:35:12;101638.00;;;7.20;39.03
53659;BME280;41524;35.624;139.698;2022-12-17T01:40:11;101629.00;;;8.67;36.15
53659;BME280;41524;35.624;139.698;2022-12-17T01:45:15;101629.00;;;7.91;37.49
53659;BME280;41524;35.624;139.698;2022-12-17T01:50:11;101616.00;;;7.87;37.24
53659;BME280;41524;35.624;139.698;2022-12-17T01:55:16;101586.00;;;7.71;40.94
53659;BME280;41524;35.624;139.698;2022-12-17T02:00:17;101585.00;;;7.67;38.52
53659;BME280;41524;35.624;139.698;2022-12-17T02:05:11;101577.00;;;7.96;39.16
53659;BME280;41524;35.624;139.698;2022-12-17T02:10:22;101544.00;;;9.43;37.31
53659;BME280;41524;35.624;139.698;2022-12-17T02:15:20;101505.00;;;11.47;35.39
53659;BME280;41524;35.624;139.698;2022-12-17T02:20:26;101466.00;;;11.29;34.12
53659;BME280;41524;35.624;139.698;2022-12-17T02:25:19;101466.00;;;11.07;33.97
53659;BME280;41524;35.624;139.698;2022-12-17T02:30:15;101468.00;;;9.03;35.31
53659;BME280;41524;35.624;139.698;2022-12-17T02:35:18;101491.00;;;9.23;37.42
53659;BME280;41524;35.624;139.698;2022-12-17T02:40:11;101475.00;;;9.04;37.41
53659;BME280;41524;35.624;139.698;2022-12-17T02:45:11;101466.00;;;8.02;36.58
53659;BME280;41524;35.624;139.698;2022-12-17T02:50:12;101433.00;;;7.85;38.40
53659;BME280;41524;35.624;139.698;2022-12-17T02:55:16;101411.00;;;7.48;39.24
53659;BME280;41524;35.624;139.698;2022-12-17T03:00:12;101404.00;;;8.47;38.62
53659;BME280;41524;35.624;139.698;2022-12-17T03:05:21;101398.00;;;8.60;39.45
53659;BME280;41524;35.624;139.698;2022-12-17T03:10:11;101394.00;;;6.61;40.94
53659;BME280;41524;35.624;139.698;2022-12-17T03:15:12;101385.00;;;8.33;38.54
53659;BME280;41524;35.624;139.698;2022-12-17T03:20:12;101357.00;;;8.21;39.76
53659;BME280;41524;35.624;139.698;2022-12-17T03:25:11;101351.00;;;8.55;38.47
53659;BME280;41524;35.624;139.698;2022-12-17T03:30:13;101358.00;;;8.47;40.51
53659;BME280;41524;35.624;139.698;2022-12-17T03:35:12;101340.00;;;8.28;40.37
53659;BME280;41524;35.624;139.698;2022-12-17T03:40:12;101333.00;;;7.63;39.00
53659;BME280;41524;35.624;139.698;2022-12-17T03:45:12;101323.00;;;9.04;38.99
53659;BME280;41524;35.624;139.698;2022-12-17T03:50:11;101310.00;;;8.57;39.14
53659;BME280;41524;35.624;139.698;2022-12-17T03:55:15;101298.00;;;8.12;37.88
53659;BME280;41524;35.624;139.698;2022-12-17T04:00:15;101305.00;;;9.18;37.33
53659;BME280;41524;35.624;139.698;2022-12-17T04:05:11;101292.00;;;8.53;38.98
53659;BME280;41524;35.624;139.698;2022-12-17T04:10:11;101275.00;;;8.53;37.50
53659;BME280;41524;35.624;139.698;2022-12-17T04:15:12;101273.00;;;8.13;39.40
53659;BME280;41524;35.624;139.698;2022-12-17T04:20:10;101244.00;;;9.55;37.58
53659;BME280;41524;35.624;139.698;2022-12-17T04:25:21;101252.00;;;9.50;36.47
53659;BME280;41524;35.624;139.698;2022-12-17T04:30:15;101219.00;;;8.75;39.39
53659;BME280;41524;35.624;139.698;2022-12-17T04:35:15;101244.00;;;9.11;37.94
53659;BME280;41524;35.624;139.698;2022-12-17T04:40:14;101231.00;;;9.05;38.22
53659;BME280;41524;35.624;139.698;2022-12-17T04:45:11;101220.00;;;8.83;37.63
53659;BME280;41524;35.624;139.698;2022-12-17T04:50:17;101208.00;;;9.49;37.29
53659;BME280;41524;35.624;139.698;2022-12-17T04:55:10;101183.00;;;9.15;38.44
53659;BME280;41524;35.624;139.698;2022-12-17T05:00:13;101194.00;;;8.68;40.81
53659;BME280;41524;35.624;139.698;2022-12-17T05:05:11;101185.00;;;9.33;37.78
53659;BME280;41524;35.624;139.698;2022-12-17T05:10:11;101168.00;;;8.73;37.66
53659;BME280;41524;35.624;139.698;2022-12-17T05:15:11;101163.00;;;7.50;40.19
53659;BME280;41524;35.624;139.698;2022-12-17T05:20:11;101188.00;;;8.76;38.83
53659;BME280;41524;35.624;139.698;2022-12-17T05:25:10;101191.00;;;9.47;37.19
53659;BME280;41524;35.624;139.698;2022-12-17T05:30:12;101207.00;;;8.14;39.85
53659;BME280;41524;35.624;139.698;2022-12-17T05:35:10;101187.00;;;8.07;40.83
53659;BME280;41524;35.624;139.698;2022-12-17T05:40:12;101188.00;;;8.15;41.54
53659;BME280;41524;35.624;139.698;2022-12-17T05:45:13;101181.00;;;8.95;40.24
53659;BME280;41524;35.624;139.698;2022-12-17T05:50:10;101177.00;;;6.86;46.00
53659;BME280;41524;35.624;139.698;2022-12-17T05:55:12;101160.00;;;8.46;43.86
53659;BME280;41524;35.624;139.698;2022-12-17T06:00:21;101140.00;;;7.70;45.12
53659;BME280;41524;35.624;139.698;2022-12-17T06:05:15;101132.00;;;7.71;44.02
53659;BME280;41524;35.624;139.698;2022-12-17T06:10:12;101135.00;;;7.94;43.40
53659;BME280;41524;35.624;139.698;2022-12-17T06:15:11;101093.00;;;8.09;43.48
53659;BME280;41524;35.624;139.698;2022-12-17T06:20:11;101086.00;;;8.18;43.83
53659;BME280;41524;35.624;139.698;2022-12-17T06:25:11;101086.00;;;7.38;45.74
53659;BME280;41524;35.624;139.698;2022-12-17T06:30:12;101089.00;;;7.74;45.55
53659;BME280;41524;35.624;139.698;2022-12-17T06:35:11;101083.00;;;8.32;44.78
53659;BME280;41524;35.624;139.698;2022-12-17T06:40:16;101094.00;;;8.71;44.95
53659;BME280;41524;35.624;139.698;2022-12-17T06:45:17;101083.00;;;7.10;47.09
53659;BME280;41524;35.624;139.698;2022-12-17T06:50:15;101090.00;;;7.50;47.46
53659;BME280;41524;35.624;139.698;2022-12-17T07:00:16;101063.00;;;7.53;48.13
53659;BME280;41524;35.624;139.698;2022-12-17T07:05:13;101055.00;;;7.21;49.17
53659;BME280;41524;35.624;139.698;2022-12-17T07:10:11;101023.00;;;7.93;48.64
53659;BME280;41524;35.624;139.698;2022-12-17T07:15:17;101017.00;;;8.37;48.37
53659;BME280;41524;35.624;139.698;2022-12-17T07:20:12;101041.00;;;8.66;47.64
53659;BME280;41524;35.624;139.698;2022-12-17T07:25:21;101021.00;;;7.41;50.04
53659;BME280;41524;35.624;139.698;2022-12-17T07:30:20;100993.00;;;7.62;50.33
53659;BME280;41524;35.624;139.698;2022-12-17T07:35:11;101010.00;;;7.59;51.09
53659;BME280;41524;35.624;139.698;2022-12-17T07:40:11;101038.00;;;8.02;50.02
53659;BME280;41524;35.624;139.698;2022-12-17T07:45:16;101010.00;;;7.45;50.88
53659;BME280;41524;35.624;139.698;2022-12-17T07:50:15;100995.00;;;7.34;51.69
53659;BME280;41524;35.624;139.698;2022-12-17T07:55:15;100976.00;;;8.36;49.74
53659;BME280;41524;35.624;139.698;2022-12-17T08:00:12;100972.00;;;8.76;49.19
53659;BME280;41524;35.624;139.698;2022-12-17T08:05:11;100963.00;;;7.81;49.72
53659;BME280;41524;35.624;139.698;2022-12-17T08:10:12;100929.00;;;8.44;48.84
53659;BME280;41524;35.624;139.698;2022-12-17T08:15:17;100914.00;;;9.05;47.77
53659;BME280;41524;35.624;139.698;2022-12-17T08:20:17;100933.00;;;8.90;48.09
53659;BME280;41524;35.624;139.698;2022-12-17T08:25:16;100935.00;;;9.59;46.75
53659;BME280;41524;35.624;139.698;2022-12-17T08:30:12;100944.00;;;9.92;46.73
53659;BME280;41524;35.624;139.698;2022-12-17T08:35:19;100930.00;;;9.86;46.56
53659;BME280;41524;35.624;139.698;2022-12-17T08:40:11;100938.00;;;8.74;46.78
53659;BME280;41524;35.624;139.698;2022-12-17T08:45:15;100949.00;;;7.33;44.49
53659;BME280;41524;35.624;139.698;2022-12-17T08:50:10;100939.00;;;7.45;43.32
53659;BME280;41524;35.624;139.698;2022-12-17T08:55:16;100940.00;;;7.31;43.15
53659;BME280;41524;35.624;139.698;2022-12-17T09:00:13;100962.00;;;6.49;44.00
53659;BME280;41524;35.624;139.698;2022-12-17T09:05:15;100958.00;;;6.35;43.99
53659;BME280;41524;35.624;139.698;2022-12-17T09:10:11;100922.00;;;6.38;43.66
53659;BME280;41524;35.624;139.698;2022-12-17T09:15:11;100945.00;;;6.08;43.85
53659;BME280;41524;35.624;139.698;2022-12-17T09:20:17;100940.00;;;5.75;43.64
53659;BME280;41524;35.624;139.698;2022-12-17T09:25:11;100939.00;;;5.92;43.32
53659;BME280;41524;35.624;139.698;2022-12-17T09:30:12;100936.00;;;5.62;43.88
53659;BME280;41524;35.624;139.698;2022-12-17T09:35:11;100908.00;;;6.48;42.18
53659;BME280;41524;35.624;139.698;2022-12-17T09:40:15;100914.00;;;6.10;42.68
53659;BME280;41524;35.624;139.698;2022-12-17T09:45:17;100915.00;;;6.00;42.83
53659;BME280;41524;35.624;139.698;2022-12-17T09:50:13;100921.00;;;5.63;43.71
53659;BME280;41524;35.624;139.698;2022-12-17T09:55:20;100934.00;;;6.05;43.01
53659;BME280;41524;35.624;139.698;2022-12-17T10:00:19;100966.00;;;5.87;43.17
53659;BME280;41524;35.624;139.698;2022-12-17T10:05:15;100975.00;;;5.83;43.09
53659;BME280;41524;35.624;139.698;2022-12-17T10:10:18;100948.00;;;5.99;42.44
53659;BME280;41524;35.624;139.698;2022-12-17T10:15:16;100907.00;;;4.99;44.16
53659;BME280;41524;35.624;139.698;2022-12-17T10:20:20;100890.00;;;5.98;42.83
53659;BME280;41524;35.624;139.698;2022-12-17T10:25:17;100853.00;;;6.26;43.26
53659;BME280;41524;35.624;139.698;2022-12-17T10:30:15;100838.00;;;6.20;43.43
53659;BME280;41524;35.624;139.698;2022-12-17T10:35:19;100826.00;;;6.59;42.31
53659;BME280;41524;35.624;139.698;2022-12-17T10:40:24;100846.00;;;6.74;42.20
53659;BME280;41524;35.624;139.698;2022-12-17T10:45:23;100852.00;;;6.42;42.58
53659;BME280;41524;35.624;139.698;2022-12-17T10:50:17;100837.00;;;6.92;41.75
53659;BME280;41524;35.624;139.698;2022-12-17T10:55:22;100815.00;;;6.93;41.51
53659;BME280;41524;35.624;139.698;2022-12-17T11:00:28;100808.00;;;6.01;43.02
53659;BME280;41524;35.624;139.698;2022-12-17T11:05:30;100798.00;;;5.99;42.89
53659;BME280;41524;35.624;139.698;2022-12-17T11:10:17;100792.00;;;5.59;44.23
53659;BME280;41524;35.624;139.698;2022-12-17T11:15:23;100782.00;;;5.98;44.35
53659;BME280;41524;35.624;139.698;2022-12-17T11:20:23;100802.00;;;6.36;44.73
53659;BME280;41524;35.624;139.698;2022-12-17T11:25:27;100814.00;;;6.08;46.78
53659;BME280;41524;35.624;139.698;2022-12-17T11:30:13;100800.00;;;6.20;46.97
53659;BME280;41524;35.624;139.698;2022-12-17T11:35:22;100783.00;;;6.41;48.51
53659;BME280;41524;35.624;139.698;2022-12-17T11:40:23;100780.00;;;5.59;50.40
53659;BME280;41524;35.624;139.698;2022-12-17T11:45:22;100782.00;;;5.87;51.77
53659;BME280;41524;35.624;139.698;2022-12-17T11:50:19;100758.00;;;5.62;50.78
53659;BME280;41524;35.624;139.698;2022-12-17T11:55:18;100748.00;;;5.57;51.30
53659;BME280;41524;35.624;139.698;2022-12-17T12:00:16;100742.00;;;5.23;53.11
53659;BME280;41524;35.624;139.698;2022-12-17T12:05:21;100745.00;;;5.47;53.15
53659;BME280;41524;35.624;139.698;2022-12-17T12:10:17;100748.00;;;5.05;54.89
53659;BME280;41524;35.624;139.698;2022-12-17T12:15:23;100733.00;;;4.74;54.07
53659;BME280;41524;35.624;139.698;2022-12-17T12:20:22;100754.00;;;4.39;55.29
53659;BME280;41524;35.624;139.698;2022-12-17T12:25:26;100765.00;;;4.64;55.33
53659;BME280;41524;35.624;139.698;2022-12-17T12:35:20;100742.00;;;5.29;55.34
53659;BME280;41524;35.624;139.698;2022-12-17T12:40:23;100745.00;;;4.95;56.70
53659;BME280;41524;35.624;139.698;2022-12-17T12:45:34;100747.00;;;4.98;56.40
53659;BME280;41524;35.624;139.698;2022-12-17T12:50:21;100739.00;;;4.75;57.19
53659;BME280;41524;35.624;139.698;2022-12-17T12:55:11;100722.00;;;4.75;57.68
53659;BME280;41524;35.624;139.698;2022-12-17T13:00:24;100696.00;;;4.97;57.41
53659;BME280;41524;35.624;139.698;2022-12-17T13:05:31;100686.00;;;4.40;58.66
53659;BME280;41524;35.624;139.698;2022-12-17T13:10:27;100667.00;;;5.00;58.37
53659;BME280;41524;35.624;139.698;2022-12-17T13:15:20;100664.00;;;5.09;58.40
53659;BME280;41524;35.624;139.698;2022-12-17T13:20:24;100650.00;;;4.83;59.33
53659;BME280;41524;35.624;139.698;2022-12-17T13:25:18;100653.00;;;4.91;59.32
53659;BME280;41524;35.624;139.698;2022-12-17T13:30:30;100669.00;;;4.75;59.45
53659;BME280;41524;35.624;139.698;2022-12-17T13:35:23;100663.00;;;4.61;60.58
53659;BME280;41524;35.624;139.698;2022-12-17T13:40:25;100654.00;;;5.00;59.50
53659;BME280;41524;35.624;139.698;2022-12-17T13:45:19;100648.00;;;5.38;60.17
53659;BME280;41524;35.624;139.698;2022-12-17T13:50:21;100651.00;;;5.54;59.08
53659;BME280;41524;35.624;139.698;2022-12-17T13:55:17;100658.00;;;5.62;59.78
53659;BME280;41524;35.624;139.698;2022-12-17T14:00:23;100624.00;;;5.09;61.34
53659;BME280;41524;35.624;139.698;2022-12-17T14:05:28;100617.00;;;4.99;61.66
53659;BME280;41524;35.624;139.698;2022-12-17T14:10:16;100606.00;;;5.65;61.52
53659;BME280;41524;35.624;139.698;2022-12-17T14:15:21;100593.00;;;5.33;60.84
53659;BME280;41524;35.624;139.698;2022-12-17T14:20:15;100586.00;;;5.38;61.44
53659;BME280;41524;35.624;139.698;2022-12-17T14:25:18;100575.00;;;5.33;60.07
53659;BME280;41524;35.624;139.698;2022-12-17T14:30:32;100548.00;;;5.30;61.06
53659;BME280;41524;35.624;139.698;2022-12-17T14:35:37;100511.00;;;6.32;58.53
53659;BME280;41524;35.624;139.698;2022-12-17T14:40:12;100481.00;;;5.60;59.79
53659;BME280;41524;35.624;139.698;2022-12-17T14:45:23;100476.00;;;5.45;60.42
53659;BME280;41524;35.624;139.698;2022-12-17T14:50:27;100450.00;;;5.18;60.09
53659;BME280;41524;35.624;139.698;2022-12-17T14:55:31;100431.00;;;5.39;61.29
53659;BME280;41524;35.624;139.698;2022-12-17T15:00:21;100449.00;;;6.03;58.70
53659;BME280;41524;35.624;139.698;2022-12-17T15:05:16;100422.00;;;5.76;59.29
53659;BME280;41524;35.624;139.698;2022-12-17T15:10:12;100446.00;;;5.13;60.67
53659;BME280;41524;35.624;139.698;2022-12-17T15:15:14;100417.00;;;5.43;61.95
53659;BME280;41524;35.624;139.698;2022-12-17T15:20:16;100414.00;;;4.59;62.84
53659;BME280;41524;35.624;139.698;2022-12-17T15:25:17;100390.00;;;4.73;63.74
53659;BME280;41524;35.624;139.698;2022-12-17T15:30:14;100382.00;;;5.63;61.47
53659;BME280;41524;35.624;139.698;2022-12-17T15:35:13;100389.00;;;4.77;62.93
53659;BME280;41524;35.624;139.698;2022-12-17T15:40:11;100389.00;;;5.44;62.13
53659;BME280;41524;35.624;139.698;2022-12-17T15:45:11;100362.00;;;4.10;65.87
53659;BME280;41524;35.624;139.698;2022-12-17T15:50:13;100341.00;;;4.80;64.43
53659;BME280;41524;35.624;139.698;2022-12-17T15:55:21;100362.00;;;4.29;66.39
53659;BME280;41524;35.624;139.698;2022-12-17T16:00:16;100358.00;;;5.04;63.91
53659;BME280;41524;35.624;139.698;2022-12-17T16:05:11;100349.00;;;4.77;64.87
53659;BME280;41524;35.624;139.698;2022-12-17T16:10:12;100323.00;;;5.71;62.50
53659;BME280;41524;35.624;139.698;2022-12-17T16:15:12;100334.00;;;5.12;62.87
53659;BME280;41524;35.624;139.698;2022-12-17T16:20:15;100345.00;;;5.22;64.41
53659;BME280;41524;35.624;139.698;2022-12-17T16:25:15;100342.00;;;5.70;62.96
53659;BME280;41524;35.624;139.698;2022-12-17T16:30:12;100322.00;;;5.18;63.09
53659;BME280;41524;35.624;139.698;2022-12-17T16:35:11;100291.00;;;4.75;64.75
53659;BME280;41524;35.624;139.698;2022-12-17T16:40:12;100290.00;;;2.49;73.74
53659;BME280;41524;35.624;139.698;2022-12-17T16:45:11;100273.00;;;4.47;67.60
53659;BME280;41524;35.624;139.698;2022-12-17T16:50:11;100278.00;;;5.20;65.50
53659;BME280;41524;35.624;139.698;2022-12-17T16:55:15;100226.00;;;3.05;72.70
53659;BME280;41524;35.624;139.698;2022-12-17T17:00:12;100216.00;;;4.71;69.01
53659;BME280;41524;35.624;139.698;2022-12-17T17:05:11;100224.00;;;5.42;66.41
53659;BME280;41524;35.624;139.698;2022-12-17T17:10:11;100237.00;;;5.55;65.72
53659;BME280;41524;35.624;139.698;2022-12-17T17:15:17;100193.00;;;5.93;65.14
53659;BME280;41524;35.624;139.698;2022-12-17T17:20:11;100218.00;;;5.55;66.53
53659;BME280;41524;35.624;139.698;2022-12-17T17:25:11;100223.00;;;5.86;65.10
53659;BME280;41524;35.624;139.698;2022-12-17T17:30:12;100235.00;;;5.91;65.34
53659;BME280;41524;35.624;139.698;2022-12-17T17:35:11;100234.00;;;5.94;65.38
53659;BME280;41524;35.624;139.698;2022-12-17T17:40:12;100242.00;;;6.25;65.46
53659;BME280;41524;35.624;139.698;2022-12-17T17:45:13;100228.00;;;6.21;64.65
53659;BME280;41524;35.624;139.698;2022-12-17T17:50:11;100196.00;;;6.31;64.35
53659;BME280;41524;35.624;139.698;2022-12-17T17:55:11;100178.00;;;5.86;65.70
53659;BME280;41524;35.624;139.698;2022-12-17T18:00:14;100173.00;;;6.02;65.71
53659;BME280;41524;35.624;139.698;2022-12-17T18:05:11;100151.00;;;5.98;65.07
53659;BME280;41524;35.624;139.698;2022-12-17T18:10:11;100150.00;;;4.72;69.21
53659;BME280;41524;35.624;139.698;2022-12-17T18:15:12;100178.00;;;4.60;69.92
53659;BME280;41524;35.624;139.698;2022-12-17T18:20:15;100136.00;;;5.69;66.74
53659;BME280;41524;35.624;139.698;2022-12-17T18:25:11;100130.00;;;5.98;65.26
53659;BME280;41524;35.624;139.698;2022-12-17T18:30:12;100134.00;;;6.17;65.54
53659;BME280;41524;35.624;139.698;2022-12-17T18:35:11;100141.00;;;6.49;64.71
53659;BME280;41524;35.624;139.698;2022-12-17T18:40:11;100156.00;;;6.13;65.84
53659;BME280;41524;35.624;139.698;2022-12-17T18:45:11;100153.00;;;6.48;64.65
53659;BME280;41524;35.624;139.698;2022-12-17T18:50:12;100154.00;;;5.81;66.28
53659;BME280;41524;35.624;139.698;2022-12-17T18:55:11;100161.00;;;5.33;67.56
53659;BME280;41524;35.624;139.698;2022-12-17T19:00:12;100166.00;;;5.43;67.04
53659;BME280;41524;35.624;139.698;2022-12-17T19:05:11;100165.00;;;5.06;68.43
53659;BME280;41524;35.624;139.698;2022-12-17T19:10:11;100153.00;;;5.35;67.82
53659;BME280;41524;35.624;139.698;2022-12-17T19:15:11;100135.00;;;5.33;67.27
53659;BME280;41524;35.624;139.698;2022-12-17T19:20:11;100115.00;;;5.71;66.33
53659;BME280;41524;35.624;139.698;2022-12-17T19:25:10;100111.00;;;5.92;65.61
53659;BME280;41524;35.624;139.698;2022-12-17T19:30:12;100123.00;;;4.77;68.18
53659;BME280;41524;35.624;139.698;2022-12-17T19:35:12;100127.00;;;4.79;68.41
53659;BME280;41524;35.624;139.698;2022-12-17T19:40:12;100112.00;;;5.42;66.93
53659;BME280;41524;35.624;139.698;2022-12-17T19:45:11;100114.00;;;5.44;66.70
53659;BME280;41524;35.624;139.698;2022-12-17T19:50:10;100113.00;;;5.33;67.45
53659;BME280;41524;35.624;139.698;2022-12-17T19:55:11;100095.00;;;5.53;66.67
53659;BME280;41524;35.624;139.698;2022-12-17T20:00:11;100097.00;;;5.42;66.70
53659;BME280;41524;35.624;139.698;2022-12-17T20:05:14;100113.00;;;5.38;66.14
53659;BME280;41524;35.624;139.698;2022-12-17T20:10:11;100121.00;;;5.03;67.18
53659;BME280;41524;35.624;139.698;2022-12-17T20:15:11;100137.00;;;4.97;67.03
53659;BME280;41524;35.624;139.698;2022-12-17T20:20:11;100120.00;;;6.51;63.70
53659;BME280;41524;35.624;139.698;2022-12-17T20:25:11;100146.00;;;5.32;66.52
53659;BME280;41524;35.624;139.698;2022-12-17T20:30:12;100153.00;;;5.07;67.32
53659;BME280;41524;35.624;139.698;2022-12-17T20:35:10;100158.00;;;4.75;68.27
53659;BME280;41524;35.624;139.698;2022-12-17T20:40:17;100172.00;;;4.92;67.66
53659;BME280;41524;35.624;139.698;2022-12-17T20:45:11;100180.00;;;5.22;67.53
53659;BME280;41524;35.624;139.698;2022-12-17T20:50:15;100178.00;;;6.08;63.80
53659;BME280;41524;35.624;139.698;2022-12-17T20:55:11;100201.00;;;5.53;65.97
53659;BME280;41524;35.624;139.698;2022-12-17T21:00:12;100196.00;;;5.74;64.39
53659;BME280;41524;35.624;139.698;2022-12-17T21:05:11;100184.00;;;5.53;63.83
53659;BME280;41524;35.624;139.698;2022-12-17T21:10:11;100195.00;;;5.71;64.07
53659;BME280;41524;35.624;139.698;2022-12-17T21:15:12;100204.00;;;6.16;63.57
53659;BME280;41524;35.624;139.698;2022-12-17T21:20:11;100212.00;;;6.38;62.90
53659;BME280;41524;35.624;139.698;2022-12-17T21:25:12;100215.00;;;6.22;62.85
53659;BME280;41524;35.624;139.698;2022-12-17T21:30:15;100220.00;;;6.10;63.35
53659;BME280;41524;35.624;139.698;2022-12-17T21:35:15;100225.00;;;5.55;64.07
53659;BME280;41524;35.624;139.698;2022-12-17T21:40:12;100230.00;;;6.89;60.59
53659;BME280;41524;35.624;139.698;2022-12-17T21:45:12;100237.00;;;6.14;62.73
53659;BME280;41524;35.624;139.698;2022-12-17T21:50:11;100231.00;;;6.69;60.90
53659;BME280;41524;35.624;139.698;2022-12-17T21:55:11;100218.00;;;6.88;61.09
53659;BME280;41524;35.624;139.698;2022-12-17T22:00:19;100230.00;;;5.45;63.81
53659;BME280;41524;35.624;139.698;2022-12-17T22:05:12;100230.00;;;6.30;61.86
53659;BME280;41524;35.624;139.698;2022-12-17T22:10:10;100235.00;;;6.03;61.75
53659;BME280;41524;35.624;139.698;2022-12-17T22:15:10;100254.00;;;5.87;60.33
53659;BME280;41524;35.624;139.698;2022-12-17T22:20:16;100249.00;;;5.73;60.16
53659;BME280;41524;35.624;139.698;2022-12-17T22:25:16;100248.00;;;6.31;56.77
53659;BME280;41524;35.624;139.698;2022-12-17T22:30:14;100256.00;;;5.38;57.11
53659;BME280;41524;35.624;139.698;2022-12-17T22:35:15;100251.00;;;4.80;57.44
53659;BME280;41524;35.624;139.698;2022-12-17T22:40:11;100234.00;;;5.45;52.85
53659;BME280;41524;35.624;139.698;2022-12-17T22:45:13;100241.00;;;5.38;52.78
53659;BME280;41524;35.624;139.698;2022-12-17T22:50:15;100248.00;;;4.88;53.87
53659;BME280;41524;35.624;139.698;2022-12-17T22:55:13;100249.00;;;4.90;53.58
53659;BME280;41524;35.624;139.698;2022-12-17T23:00:14;100250.00;;;4.42;51.26
53659;BME280;41524;35.624;139.698;2022-12-17T23:05:12;100294.00;;;4.79;49.26
53659;BME280;41524;35.624;139.698;2022-12-17T23:10:16;100287.00;;;4.44;50.49
53659;BME280;41524;35.624;139.698;2022-12-17T23:15:16;100278.00;;;4.31;50.03
53659;BME280;41524;35.624;139.698;2022-12-17T23:20:12;100276.00;;;5.45;50.47
53659;BME280;41524;35.624;139.698;2022-12-17T23:25:14;100281.00;;;5.69;49.97
53659;BME280;41524;35.624;139.698;2022-12-17T23:30:15;100283.00;;;5.41;53.48
53659;BME280;41524;35.624;139.698;2022-12-17T23:35:15;100288.00;;;6.39;49.38
53659;BME280;41524;35.624;139.698;2022-12-17T23:40:13;100287.00;;;6.24;50.20
53659;BME280;41524;35.624;139.698;2022-12-17T23:45:19;100294.00;;;12.77;43.06
53659;BME280;41524;35.624;139.698;2022-12-17T23:50:17;100297.00;;;18.22;30.60
53659;BME280;41524;35.624;139.698;2022-12-17T23:55:11;100300.00;;;19.74;27.03
